Time;durP1;ratioP1;P1;durP2;ratioP2;P2;SDS_P1;SDS_P2;PMS_P1;PMS_P2;Temp;Humidity;BMP_temperature;BMP_pressure;BME280_temperature;BME280_humidity;BME280_pressure;Samples;Min_cycle;Max_cycle;Signal;HPM_P1;HPM_P2
2022/10/20 00:01:18;;;;;;;12.73;6.97;;;13.10;99.90;;;13.42;nan;100940.09;4996541;28;20614;-64
2022/10/20 00:03:46;;;;;;;12.53;6.20;;;13.10;99.90;;;13.39;nan;100945.59;5007193;28;20638;-64
2022/10/20 00:06:18;;;;;;;12.87;6.83;;;13.10;99.90;;;13.42;nan;100940.94;4993816;28;20667;-64
2022/10/20 00:08:46;;;;;;;9.20;6.53;;;13.10;99.90;;;13.41;nan;100939.28;4975911;28;20618;-65
2022/10/20 00:11:16;;;;;;;11.20;6.93;;;13.10;99.90;;;13.37;nan;100937.88;4977193;28;20614;-64
2022/10/20 00:13:45;;;;;;;15.53;6.70;;;13.00;99.90;;;13.32;nan;100924.28;5002326;28;20636;-65
2022/10/20 00:16:13;;;;;;;8.67;5.60;;;13.00;99.90;;;13.22;nan;100923.34;5012983;28;20653;-64
2022/10/20 00:18:41;;;;;;;10.23;5.83;;;13.00;99.90;;;13.32;nan;100920.81;5006323;28;20650;-65
2022/10/20 00:21:14;;;;;;;10.60;6.73;;;13.00;99.90;;;13.37;nan;100910.81;5001828;28;20685;-65
2022/10/20 00:23:41;;;;;;;10.83;6.07;;;13.00;99.90;;;13.33;nan;100920.69;4975629;28;21086;-64
2022/10/20 00:26:14;;;;;;;9.43;5.27;;;13.00;99.90;;;13.32;nan;100924.28;4981486;28;20666;-64
2022/10/20 00:28:41;;;;;;;9.60;6.10;;;13.00;99.90;;;13.24;nan;100914.38;4995320;28;20616;-65
2022/10/20 00:31:09;;;;;;;9.80;5.50;;;13.00;99.90;;;13.32;nan;100919.03;5010662;28;20637;-65
2022/10/20 00:33:36;;;;;;;8.37;5.77;;;13.00;99.90;;;13.35;nan;100924.06;4981085;28;20656;-65
2022/10/20 00:36:07;;;;;;;9.23;6.13;;;13.00;99.90;;;13.33;nan;100925.94;5010468;28;20699;-64
2022/10/20 00:38:34;;;;;;;12.17;6.13;;;13.00;99.90;;;13.27;nan;100921.19;5006132;28;20639;-64
2022/10/20 00:41:02;;;;;;;10.83;6.77;;;13.00;99.90;;;13.25;nan;100923.09;5007903;28;21002;-64
2022/10/20 00:44:01;;;;;;;10.30;5.83;;;13.00;99.90;;;13.24;nan;100916.19;4982319;28;20645;-66
2022/10/20 00:46:36;;;;;;;10.20;5.90;;;12.90;99.90;;;13.14;nan;100912.59;4996216;28;20685;-64
2022/10/20 00:49:17;;;;;;;9.07;5.90;;;12.90;99.90;;;13.21;nan;100911.19;5010524;28;20637;-64
2022/10/20 00:51:44;;;;;;;8.00;5.30;;;12.90;99.90;;;13.26;nan;100910.81;4995435;28;20626;-64
2022/10/20 00:54:18;;;;;;;12.93;6.70;;;12.90;99.90;;;13.17;nan;100897.50;4994516;28;20628;-64
2022/10/20 00:56:47;;;;;;;13.00;6.50;;;12.90;99.90;;;13.05;nan;100895.00;5011018;28;20632;-65
2022/10/20 00:59:19;;;;;;;10.07;5.40;;;12.80;99.90;;;13.08;nan;100897.38;4992190;28;20644;-64
2022/10/20 01:01:46;;;;;;;11.50;6.70;;;12.80;99.90;;;13.15;nan;100885.47;4993692;28;20644;-64
2022/10/20 01:04:14;;;;;;;13.50;7.17;;;12.80;99.90;;;13.19;nan;100882.50;4990793;28;20646;-64
2022/10/20 01:06:41;;;;;;;12.90;5.90;;;12.80;99.90;;;13.19;nan;100876.41;4989878;28;20666;-64
2022/10/20 01:09:08;;;;;;;7.73;5.63;;;12.90;99.90;;;13.17;nan;100878.31;4991102;28;20681;-64
2022/10/20 01:11:48;;;;;;;11.63;6.40;;;12.80;99.90;;;13.21;nan;100869.25;5005472;28;21202;-64
2022/10/20 01:14:47;;;;;;;10.83;5.93;;;12.80;99.90;;;13.12;nan;100867.34;4994299;28;20614;-63
2022/10/20 01:18:04;;;;;;;10.33;5.80;;;12.80;99.90;;;13.05;nan;100884.53;4994107;28;20633;-64
2022/10/20 01:21:38;;;;;;;9.03;5.00;;;12.70;99.90;;;13.16;nan;100879.28;5009617;28;20637;-63
2022/10/20 01:24:40;;;;;;;12.70;5.17;;;12.70;99.90;;;13.12;nan;100873.44;4970021;28;20623;-63
2022/10/20 01:27:29;;;;;;;6.03;4.70;;;12.70;99.90;;;13.01;nan;100873.41;4969989;28;20725;-63
2022/10/20 01:30:03;;;;;;;14.20;6.87;;;12.70;99.90;;;13.15;nan;100872.38;4992267;28;20614;-64
2022/10/20 01:33:13;;;;;;;20.03;6.63;;;12.70;99.90;;;13.10;nan;100877.97;4993845;28;20606;-65
2022/10/20 01:35:45;;;;;;;9.40;6.23;;;12.70;99.90;;;13.14;nan;100870.69;5010691;28;20685;-64
2022/10/20 01:38:27;;;;;;;8.63;5.50;;;12.70;99.90;;;13.05;nan;100863.56;5010854;28;20622;-64
2022/10/20 01:41:21;;;;;;;8.40;4.90;;;12.70;99.90;;;13.01;nan;100856.88;5010535;28;20996;-65
2022/10/20 01:43:49;;;;;;;10.33;6.00;;;12.70;99.90;;;12.97;nan;100851.03;4993523;28;20675;-65
2022/10/20 01:46:19;;;;;;;10.90;7.00;;;12.60;99.90;;;12.96;nan;100859.84;5002915;28;21049;-65
2022/10/20 01:48:47;;;;;;;12.60;7.40;;;12.60;99.90;;;12.98;nan;100857.94;4992462;28;20633;-64
2022/10/20 01:51:14;;;;;;;12.70;7.00;;;12.60;99.90;;;12.94;nan;100850.44;4993440;28;20621;-65
2022/10/20 01:53:41;;;;;;;11.13;6.30;;;12.60;99.90;;;12.82;nan;100848.78;5011058;28;20625;-64
2022/10/20 01:56:24;;;;;;;10.40;6.10;;;12.50;99.90;;;12.84;nan;100842.47;5011634;28;20654;-64
2022/10/20 01:59:09;;;;;;;11.90;7.20;;;12.50;99.90;;;12.83;nan;100832.13;5011604;28;21177;-63
2022/10/20 02:02:01;;;;;;;13.30;6.63;;;12.50;99.90;;;12.83;nan;100832.13;5011047;28;21266;-64
2022/10/20 02:05:13;;;;;;;12.43;7.20;;;12.50;99.90;;;12.70;nan;100829.63;5010378;28;20630;-65
2022/10/20 02:07:41;;;;;;;12.00;5.20;;;12.40;99.90;;;12.63;nan;100828.41;5011030;28;20672;-64
2022/10/20 02:10:24;;;;;;;11.00;6.43;;;12.40;99.90;;;12.68;nan;100828.06;4993099;28;20624;-64
2022/10/20 02:12:57;;;;;;;9.90;6.10;;;12.30;99.90;;;12.67;nan;100821.19;4993697;28;21154;-64
2022/10/20 02:15:26;;;;;;;11.93;7.63;;;12.30;99.90;;;12.74;nan;100823.19;5011462;28;20652;-64
2022/10/20 02:18:04;;;;;;;12.50;6.97;;;12.30;99.90;;;12.72;nan;100825.09;4992199;28;20633;-64
2022/10/20 02:20:33;;;;;;;14.63;7.17;;;12.40;99.90;;;12.74;nan;100819.72;4993697;28;20630;-64
2022/10/20 02:23:03;;;;;;;13.10;7.07;;;12.40;99.90;;;12.61;nan;100813.78;4991991;28;21198;-64
2022/10/20 02:25:32;;;;;;;17.03;7.20;;;12.30;99.90;;;12.42;nan;100817.81;4994169;28;21046;-65
2022/10/20 02:28:01;;;;;;;11.97;8.00;;;12.20;99.90;;;12.63;nan;100825.78;4992301;28;20666;-62
2022/10/20 02:30:29;;;;;;;16.90;7.97;;;12.20;99.90;;;12.68;nan;100812.34;4991682;28;20634;-61
2022/10/20 02:32:56;;;;;;;11.17;6.93;;;12.30;99.90;;;12.57;nan;100807.94;5009930;28;20629;-64
2022/10/20 02:35:29;;;;;;;15.93;6.83;;;12.30;99.90;;;12.57;nan;100804.50;5005569;28;21272;-65
2022/10/20 02:37:57;;;;;;;12.97;7.27;;;12.30;99.90;;;12.57;nan;100804.50;4992491;28;21181;-64
2022/10/20 02:40:24;;;;;;;11.07;7.13;;;12.30;99.90;;;12.48;nan;100801.66;5010101;28;21182;-64
2022/10/20 02:42:52;;;;;;;12.37;6.77;;;12.20;99.90;;;12.46;nan;100802.72;5005920;28;20724;-64
2022/10/20 02:45:19;;;;;;;9.37;6.00;;;12.20;99.90;;;12.52;nan;100804.88;4998812;28;20655;-63
2022/10/20 02:47:46;;;;;;;12.40;6.90;;;12.20;99.90;;;12.51;nan;100803.19;5002904;28;20678;-64
2022/10/20 02:50:13;;;;;;;13.00;6.30;;;12.20;99.90;;;12.62;nan;100811.06;5010336;28;20637;-64
2022/10/20 02:52:41;;;;;;;10.40;6.70;;;12.20;99.90;;;12.62;nan;100812.84;5008924;28;20637;-64
2022/10/20 02:55:08;;;;;;;7.13;5.47;;;12.20;99.90;;;12.51;nan;100804.97;5009961;28;20659;-65
2022/10/20 02:57:35;;;;;;;7.70;5.00;;;12.20;99.90;;;12.53;nan;100813.53;5013562;28;21427;-64
2022/10/20 03:00:05;;;;;;;10.07;5.77;;;12.20;99.90;;;12.57;nan;100813.19;5014618;28;20612;-64
2022/10/20 03:02:32;;;;;;;10.10;5.67;;;12.20;99.90;;;12.61;nan;100808.53;5013785;28;20630;-64
2022/10/20 03:04:59;;;;;;;10.80;5.90;;;12.20;99.90;;;12.58;nan;100807.03;5014306;28;20662;-65
2022/10/20 03:07:26;;;;;;;8.20;5.90;;;12.20;99.90;;;12.59;nan;100810.44;5014355;28;20668;-64
2022/10/20 03:09:52;;;;;;;10.40;6.00;;;12.20;99.90;;;12.45;nan;100806.28;5012590;28;20626;-64
2022/10/20 03:12:19;;;;;;;10.50;5.43;;;12.10;99.90;;;12.46;nan;100811.41;5014818;28;21170;-64
2022/10/20 03:14:46;;;;;;;8.70;5.10;;;12.10;99.90;;;12.48;nan;100810.47;5012981;28;21262;-64
2022/10/20 03:17:13;;;;;;;10.37;5.90;;;12.10;99.90;;;12.48;nan;100817.34;4983775;28;20626;-65
2022/10/20 03:19:40;;;;;;;9.13;5.87;;;12.10;99.90;;;12.45;nan;100816.75;5007851;28;21063;-65
2022/10/20 03:22:07;;;;;;;9.30;6.40;;;12.10;99.90;;;12.34;nan;100803.66;5004672;28;20997;-65
2022/10/20 03:24:34;;;;;;;10.20;6.60;;;12.00;99.90;;;12.31;nan;100793.41;5012702;28;20613;-65
2022/10/20 03:27:01;;;;;;;8.70;5.37;;;12.00;99.90;;;12.29;nan;100795.31;5005048;28;20665;-64
2022/10/20 03:29:28;;;;;;;12.40;6.73;;;12.00;99.90;;;12.27;nan;100790.22;5013670;28;20628;-65
2022/10/20 03:31:55;;;;;;;17.90;6.30;;;11.90;99.90;;;12.30;nan;100791.75;5012269;28;20659;-64
2022/10/20 03:34:22;;;;;;;10.87;7.07;;;11.90;99.90;;;12.27;nan;100787.59;5013133;28;20610;-66
2022/10/20 03:36:49;;;;;;;12.33;7.03;;;11.90;99.90;;;12.12;nan;100777.44;5013359;28;21015;-64
2022/10/20 03:39:16;;;;;;;10.10;6.70;;;11.90;99.90;;;12.06;nan;100773.53;4996284;28;20626;-65
2022/10/20 03:41:43;;;;;;;10.97;5.63;;;11.80;99.90;;;12.12;nan;100770.44;5013916;28;20624;-65
2022/10/20 03:44:10;;;;;;;9.80;7.03;;;11.80;99.90;;;12.25;nan;100767.72;5013344;28;20641;-64
2022/10/20 03:46:37;;;;;;;8.33;5.97;;;11.80;99.90;;;12.17;nan;100765.72;5012216;28;21272;-64
2022/10/20 03:49:04;;;;;;;11.57;6.30;;;11.90;99.90;;;12.20;nan;100762.03;5042629;22;20689;-65
2022/10/20 03:51:31;;;;;;;11.00;7.00;;;11.90;99.90;;;12.16;nan;100760.59;5031060;28;21183;-64
2022/10/20 03:53:58;;;;;;;11.10;6.50;;;11.90;99.90;;;12.00;nan;100747.84;5033399;28;20621;-64
2022/10/20 03:56:25;;;;;;;12.07;7.27;;;11.80;99.90;;;12.09;nan;100752.38;5032471;28;20621;-65
2022/10/20 03:58:52;;;;;;;9.70;5.47;;;11.80;99.90;;;12.08;nan;100748.09;5017148;28;20673;-65
2022/10/20 04:01:27;;;;;;;14.80;6.27;;;11.80;99.90;;;12.06;nan;100755.22;5011763;28;20652;-65
2022/10/20 04:03:54;;;;;;;9.07;6.30;;;11.80;99.90;;;12.07;nan;100754.28;4995822;28;20632;-65
2022/10/20 04:06:21;;;;;;;14.63;7.03;;;11.80;99.90;;;12.18;nan;100763.94;5007123;28;20640;-64
2022/10/20 04:08:48;;;;;;;9.57;5.37;;;11.80;99.90;;;12.14;nan;100765.09;5011713;28;20677;-65
2022/10/20 04:11:15;;;;;;;9.63;6.17;;;11.80;99.90;;;12.09;nan;100756.78;5013074;28;20637;-65
2022/10/20 04:13:42;;;;;;;9.33;5.63;;;11.80;99.90;;;12.13;nan;100764.28;5012984;28;20687;-64
2022/10/20 04:16:09;;;;;;;6.10;4.90;;;11.80;99.90;;;12.20;nan;100765.47;5013481;28;20614;-66
2022/10/20 04:18:36;;;;;;;7.40;5.43;;;11.80;99.90;;;12.27;nan;100766.66;5011313;28;20645;-62
2022/10/20 04:21:03;;;;;;;11.47;5.40;;;11.90;99.90;;;12.25;nan;100754.66;5013727;28;20636;-64
2022/10/20 04:23:30;;;;;;;5.00;3.90;;;11.80;99.90;;;12.31;nan;100759.41;4995570;28;20631;-65
2022/10/20 04:25:57;;;;;;;7.07;5.57;;;11.80;99.90;;;12.29;nan;100745.59;5004274;28;20973;-64
2022/10/20 04:28:23;;;;;;;8.63;5.43;;;11.90;99.90;;;12.34;nan;100741.69;5013379;28;20666;-65
2022/10/20 04:30:50;;;;;;;10.80;6.00;;;11.90;99.90;;;12.26;nan;100723.16;5012698;28;20675;-64
2022/10/20 04:33:17;;;;;;;14.20;5.93;;;11.90;99.90;;;12.18;nan;100716.84;4996069;28;20644;-64
2022/10/20 04:35:44;;;;;;;7.23;5.40;;;11.80;99.90;;;12.27;nan;100719.56;5004642;28;20635;-65
2022/10/20 04:38:11;;;;;;;14.77;6.73;;;11.80;99.90;;;12.23;nan;100725.16;5008035;28;20673;-65
2022/10/20 04:40:38;;;;;;;11.10;6.07;;;11.80;99.90;;;12.19;nan;100724.56;5003942;28;20664;-64
2022/10/20 04:43:05;;;;;;;6.47;4.33;;;11.80;99.90;;;12.20;nan;100728.84;5011000;28;20638;-64
2022/10/20 04:45:32;;;;;;;11.00;4.80;;;11.80;99.90;;;12.22;nan;100728.75;5011606;28;20675;-65
2022/10/20 04:47:59;;;;;;;6.17;4.50;;;11.80;99.90;;;12.22;nan;100721.69;5010028;28;20681;-62
2022/10/20 04:50:26;;;;;;;6.40;4.53;;;11.80;99.90;;;12.22;nan;100716.47;5003038;28;20632;-65
2022/10/20 04:52:53;;;;;;;8.07;4.80;;;11.80;99.90;;;12.26;nan;100720.53;5010004;28;20616;-64
2022/10/20 04:55:20;;;;;;;7.57;5.40;;;11.80;99.90;;;12.24;nan;100717.22;5011469;28;20634;-66
2022/10/20 04:57:47;;;;;;;6.47;4.53;;;11.80;99.90;;;12.24;nan;100719.00;4995124;28;20731;-65
2022/10/20 05:00:14;;;;;;;13.50;5.10;;;11.80;99.90;;;12.26;nan;100711.84;5005875;28;20642;-65
2022/10/20 05:02:41;;;;;;;5.20;4.27;;;11.80;99.90;;;12.27;nan;100719.56;5009013;28;20755;-67
2022/10/20 05:05:08;;;;;;;6.20;4.70;;;11.80;99.90;;;12.22;nan;100713.03;5008938;28;20642;-66
2022/10/20 05:07:35;;;;;;;6.30;4.77;;;11.80;99.90;;;12.22;nan;100703.38;5008992;28;20670;-66
2022/10/20 05:10:03;;;;;;;9.50;5.67;;;11.70;99.90;;;12.03;nan;100695.28;5010233;28;20695;-66
2022/10/20 05:12:30;;;;;;;8.17;4.87;;;11.70;99.90;;;11.96;nan;100696.75;5010953;28;20637;-66
2022/10/20 05:14:57;;;;;;;5.67;4.53;;;11.60;99.90;;;12.00;nan;100694.72;5010345;28;20633;-65
2022/10/20 05:17:24;;;;;;;7.00;4.67;;;11.60;99.90;;;12.03;nan;100687.44;5010390;28;20725;-65
2022/10/20 05:19:51;;;;;;;6.20;4.90;;;11.60;99.90;;;12.00;nan;100682.47;5011318;28;20622;-65
2022/10/20 05:22:17;;;;;;;7.00;5.00;;;11.60;99.90;;;12.03;nan;100669.16;5007222;28;20634;-65
2022/10/20 05:24:44;;;;;;;6.83;4.67;;;11.60;99.90;;;11.98;nan;100678.31;5011105;28;20636;-66
2022/10/20 05:27:11;;;;;;;7.30;4.43;;;11.60;99.90;;;11.99;nan;100683.41;5009726;28;20671;-66
2022/10/20 05:29:40;;;;;;;12.60;5.03;;;11.60;99.90;;;11.94;nan;100689.94;5010509;28;21171;-68
2022/10/20 05:32:09;;;;;;;5.30;4.50;;;11.60;99.90;;;11.98;nan;100686.16;5011296;28;20632;-66
2022/10/20 05:34:37;;;;;;;9.93;4.67;;;11.60;99.90;;;12.04;nan;100685.69;5009652;28;21234;-64
2022/10/20 05:37:04;;;;;;;4.53;3.70;;;11.60;99.90;;;11.99;nan;100683.41;5011012;28;20626;-67
2022/10/20 05:39:31;;;;;;;5.23;3.90;;;11.60;99.90;;;11.97;nan;100671.44;4993139;28;20613;-64
2022/10/20 05:41:58;;;;;;;5.80;4.20;;;11.50;99.90;;;11.92;nan;100677.00;4992897;28;20640;-66
2022/10/20 05:44:25;;;;;;;3.90;3.33;;;11.50;99.90;;;11.95;nan;100674.13;5010820;28;20613;-65
2022/10/20 05:46:52;;;;;;;5.57;4.33;;;11.50;99.90;;;11.94;nan;100675.09;5003657;28;20700;-65
2022/10/20 05:49:21;;;;;;;8.63;4.00;;;11.50;99.90;;;12.00;nan;100673.78;5005700;28;20678;-65
2022/10/20 05:51:48;;;;;;;5.40;4.47;;;11.50;99.90;;;11.94;nan;100674.28;5010223;28;20634;-64
2022/10/20 05:54:15;;;;;;;9.40;5.03;;;11.50;99.90;;;11.92;nan;100676.16;4993731;28;20624;-65
2022/10/20 05:56:42;;;;;;;4.67;4.20;;;11.50;99.90;;;11.90;nan;100671.06;5010014;28;20878;-65
2022/10/20 05:59:10;;;;;;;8.13;4.47;;;11.50;99.90;;;11.91;nan;100664.03;5011070;28;21094;-66
2022/10/20 06:02:02;;;;;;;5.83;4.63;;;11.40;99.90;;;11.90;nan;100660.59;5010447;28;20632;-65
2022/10/20 06:04:29;;;;;;;5.23;4.13;;;11.50;99.90;;;11.84;nan;100657.63;5009853;28;20859;-65
2022/10/20 06:06:57;;;;;;;6.70;5.33;;;11.40;99.90;;;11.89;nan;100666.78;5004323;28;20644;-65
2022/10/20 06:09:24;;;;;;;5.53;4.50;;;11.40;99.90;;;11.90;nan;100673.69;4995440;28;20678;-65
2022/10/20 06:11:52;;;;;;;5.43;3.67;;;11.40;99.90;;;11.95;nan;100668.91;4992001;28;21170;-65
2022/10/20 06:14:21;;;;;;;7.73;4.57;;;11.40;99.90;;;11.99;nan;100669.53;5010391;28;20634;-65
2022/10/20 06:16:52;;;;;;;7.50;4.30;;;11.50;99.90;;;12.06;nan;100681.16;5010795;28;20622;-66
2022/10/20 06:19:20;;;;;;;3.43;3.13;;;11.50;99.90;;;12.11;nan;100698.19;4994762;28;21205;-65
2022/10/20 06:21:47;;;;;;;11.07;4.27;;;11.60;99.90;;;12.12;nan;100699.81;5011521;28;20637;-65
2022/10/20 06:24:15;;;;;;;5.73;3.40;;;11.60;99.90;;;12.13;nan;100713.75;5012181;28;20628;-65
2022/10/20 06:26:46;;;;;;;5.03;3.70;;;11.60;99.90;;;12.19;nan;100711.50;4992273;28;20624;-66
2022/10/20 06:29:16;;;;;;;5.87;3.97;;;11.70;99.90;;;12.19;nan;100724.56;5002018;28;20682;-66
2022/10/20 06:31:49;;;;;;;8.20;3.80;;;11.70;99.90;;;12.33;nan;100721.72;5012613;28;21192;-66
2022/10/20 06:34:20;;;;;;;5.50;3.77;;;11.80;99.90;;;12.29;nan;100717.66;5010448;28;20675;-65
2022/10/20 06:36:48;;;;;;;4.60;3.83;;;11.80;99.90;;;12.48;nan;100717.06;5009837;28;20630;-66
2022/10/20 06:39:21;;;;;;;7.40;4.40;;;11.90;99.90;;;12.63;nan;100721.09;5013906;28;20653;-65
2022/10/20 06:41:51;;;;;;;4.97;4.17;;;12.00;99.90;;;12.79;nan;100741.66;5015820;28;20616;-65
2022/10/20 06:44:21;;;;;;;6.20;4.17;;;12.10;99.90;;;13.02;nan;100749.34;5013671;28;21185;-66
2022/10/20 06:46:51;;;;;;;3.80;2.63;;;12.20;99.90;;;13.16;nan;100753.53;5006085;28;20663;-66
2022/10/20 06:49:18;;;;;;;4.73;3.70;;;12.40;99.90;;;13.43;nan;100751.28;4996426;28;21052;-65
2022/10/20 06:51:45;;;;;;;12.60;5.40;;;12.60;99.90;;;13.72;nan;100746.25;5012081;28;20688;-65
2022/10/20 06:54:13;;;;;;;7.33;4.87;;;12.80;99.90;;;13.98;nan;100745.75;5007493;28;20632;-67
2022/10/20 06:56:40;;;;;;;7.40;5.20;;;13.00;99.90;;;14.25;nan;100749.59;5012934;28;20614;-65
2022/10/20 06:59:07;;;;;;;6.80;5.00;;;13.20;99.90;;;14.46;nan;100750.44;5013764;28;20688;-66
2022/10/20 07:01:38;;;;;;;6.17;4.60;;;13.40;99.90;;;14.59;nan;100746.59;5013863;28;20622;-65
2022/10/20 07:04:10;;;;;;;8.90;6.10;;;13.50;99.90;;;14.65;nan;100717.19;5012453;28;21014;-67
2022/10/20 07:06:40;;;;;;;8.40;5.73;;;13.60;99.90;;;14.57;nan;100718.81;4993141;28;20655;-65
2022/10/20 07:09:12;;;;;;;7.67;5.07;;;13.70;99.90;;;14.81;nan;100723.72;5013190;28;20673;-65
2022/10/20 07:11:40;;;;;;;7.60;6.00;;;13.90;99.90;;;15.32;nan;100716.44;5007574;28;20703;-66
2022/10/20 07:14:07;;;;;;;7.70;4.90;;;14.20;99.90;;;15.17;nan;100702.91;5012494;28;20636;-65
2022/10/20 07:16:37;;;;;;;8.87;6.23;;;14.30;99.90;;;15.45;nan;100707.38;4980056;28;20637;-64
2022/10/20 07:19:04;;;;;;;5.77;4.70;;;14.50;99.90;;;16.14;nan;100710.53;5013275;28;20711;-64
2022/10/20 07:21:35;;;;;;;6.67;5.13;;;14.80;99.90;;;16.73;nan;100722.50;5004096;28;20677;-66
2022/10/20 07:24:06;;;;;;;8.00;5.87;;;15.20;99.90;;;16.75;nan;100734.56;4993185;28;20634;-66
2022/10/20 07:26:38;;;;;;;13.90;6.03;;;15.40;99.90;;;16.73;nan;100731.25;5009087;28;20652;-67
2022/10/20 07:29:05;;;;;;;8.60;5.63;;;15.40;99.90;;;16.56;nan;100733.81;5002295;28;20675;-66
2022/10/20 07:31:36;;;;;;;9.60;5.90;;;15.50;99.90;;;16.40;nan;100739.66;5004927;28;20633;-66
2022/10/20 07:34:08;;;;;;;9.97;5.90;;;15.50;99.90;;;16.20;nan;100738.09;5011679;28;20633;-66
2022/10/20 07:36:54;;;;;;;6.80;5.63;;;15.40;99.90;;;16.24;nan;100744.72;4997837;28;20637;-66
2022/10/20 07:39:22;;;;;;;9.97;6.10;;;15.40;99.90;;;15.94;nan;100742.31;5012643;28;20649;-65
2022/10/20 07:41:49;;;;;;;8.97;6.30;;;15.20;99.90;;;15.85;nan;100740.53;4994460;28;20641;-65
2022/10/20 07:44:17;;;;;;;11.83;6.50;;;15.10;99.90;;;15.45;nan;100752.06;5009736;28;20647;-65
2022/10/20 07:46:44;;;;;;;8.63;5.90;;;14.90;99.90;;;15.18;nan;100749.22;4998936;28;21200;-64
2022/10/20 07:49:12;;;;;;;9.80;5.87;;;14.70;99.90;;;15.08;nan;100740.50;4992970;28;20674;-64
2022/10/20 07:51:58;;;;;;;11.90;5.50;;;14.50;99.90;;;15.32;nan;100726.97;4999007;28;21279;-64
2022/10/20 07:54:26;;;;;;;9.60;5.90;;;14.50;99.90;;;15.47;nan;100717.72;5012102;28;20690;-66
2022/10/20 07:56:53;;;;;;;5.77;4.40;;;14.60;99.90;;;15.69;nan;100721.88;5013214;28;20683;-65
2022/10/20 07:59:20;;;;;;;9.07;5.20;;;14.70;99.90;;;15.77;nan;100700.94;5011979;28;20650;-63
2022/10/20 08:01:47;;;;;;;8.67;5.63;;;14.80;99.90;;;15.86;nan;100702.72;5011878;28;21219;-65
2022/10/20 08:04:14;;;;;;;6.33;5.57;;;14.80;99.90;;;15.76;nan;100713.25;5011682;28;20633;-64
2022/10/20 08:06:41;;;;;;;7.67;5.37;;;14.80;99.90;;;16.08;nan;100726.06;5012254;28;20637;-64
2022/10/20 08:09:08;;;;;;;6.80;5.43;;;14.90;99.90;;;16.31;nan;100737.94;5012215;28;20673;-65
2022/10/20 08:11:35;;;;;;;11.13;5.90;;;15.10;99.90;;;16.25;nan;100726.16;4995684;28;20629;-66
2022/10/20 08:14:02;;;;;;;8.93;6.20;;;15.10;99.90;;;16.34;nan;100737.63;5013745;28;20613;-66
2022/10/20 08:16:29;;;;;;;13.77;5.20;;;15.20;99.90;;;16.85;nan;100729.22;5010173;28;20672;-65
2022/10/20 08:18:57;;;;;;;12.20;6.30;;;15.50;99.90;;;17.70;nan;100738.31;5009238;28;20665;-66
2022/10/20 08:21:33;;;;;;;9.80;6.27;;;16.00;99.90;;;18.48;nan;100742.59;5003926;28;20629;-65
2022/10/20 08:24:01;;;;;;;11.00;6.27;;;16.70;99.90;;;18.73;nan;100737.44;5011572;28;20622;-66
2022/10/20 08:26:28;;;;;;;13.43;6.20;;;17.10;99.90;;;19.13;nan;100735.72;4988347;28;20709;-66
2022/10/20 08:28:55;;;;;;;13.70;6.40;;;17.40;99.90;;;18.53;nan;100719.19;5011540;28;20692;-65
2022/10/20 08:31:22;;;;;;;11.90;6.00;;;17.30;99.90;;;18.56;nan;100704.84;5008954;28;20638;-67
2022/10/20 08:33:50;;;;;;;7.63;5.70;;;17.20;99.90;;;19.81;nan;100698.38;5005669;28;20639;-63
2022/10/20 08:36:19;;;;;;;30.47;6.90;;;17.60;99.90;;;21.23;nan;100701.63;5009967;28;20634;-65
2022/10/20 08:38:47;;;;;;;12.27;6.90;;;18.50;99.90;;;22.36;nan;100708.53;5010940;28;20656;-69
2022/10/20 08:41:17;;;;;;;8.70;6.60;;;19.30;99.90;;;24.01;nan;100711.88;5006776;28;21037;-66
2022/10/20 08:43:48;;;;;;;7.63;6.20;;;20.40;99.90;;;25.34;nan;100708.56;4991050;28;20636;-65
2022/10/20 08:46:22;;;;;;;7.67;6.70;;;21.60;99.90;;;27.03;nan;100714.59;4993477;28;20641;-65
2022/10/20 08:48:49;;;;;;;15.00;6.20;;;22.80;99.90;;;27.24;nan;100719.63;5009968;28;21302;-66
2022/10/20 08:51:22;;;;;;;9.43;6.73;;;23.20;99.70;;;28.96;nan;100726.59;5011019;28;20707;-66
2022/10/20 08:53:56;;;;;;;9.03;6.70;;;24.20;97.90;;;30.41;nan;100731.28;5001845;28;20682;-65
2022/10/20 08:56:28;;;;;;;9.40;6.57;;;25.20;94.90;;;31.05;nan;100743.63;5005545;28;20622;-66
2022/10/20 08:58:55;;;;;;;8.00;6.37;;;26.00;92.50;;;31.52;nan;100738.00;5011683;28;20674;-65
2022/10/20 09:01:26;;;;;;;12.70;6.57;;;26.50;90.50;;;31.93;nan;100735.69;5011547;28;20646;-66
2022/10/20 09:04:06;;;;;;;8.70;6.67;;;27.00;87.70;;;31.99;nan;100731.22;5012675;28;20676;-65
2022/10/20 09:06:33;;;;;;;7.37;6.23;;;27.40;84.70;;;32.46;nan;100734.28;5011850;28;20616;-64
2022/10/20 09:09:01;;;;;;;9.60;6.73;;;27.80;82.40;;;33.18;nan;100735.69;5011602;28;20661;-65
2022/10/20 09:11:35;;;;;;;7.40;6.57;;;28.20;79.10;;;32.83;nan;100735.31;5004032;28;20614;-64
2022/10/20 09:14:02;;;;;;;7.93;6.03;;;28.30;77.10;;;32.06;nan;100730.00;4995281;28;20636;-64
2022/10/20 09:16:36;;;;;;;8.87;7.17;;;28.10;76.00;;;30.62;nan;100722.53;5012657;28;20624;-66
2022/10/20 09:19:18;;;;;;;10.30;6.87;;;27.30;76.40;;;28.12;nan;100718.53;4983488;28;20657;-64
2022/10/20 09:21:51;;;;;;;8.87;7.00;;;26.10;78.70;;;26.01;nan;100711.84;4982185;28;20621;-66
2022/10/20 09:24:24;;;;;;;10.00;7.03;;;24.80;81.60;;;24.84;nan;100717.06;5003446;28;20630;-64
2022/10/20 09:26:51;;;;;;;7.87;6.83;;;23.80;85.80;;;24.35;nan;100712.75;4994334;28;20634;-65
2022/10/20 09:29:37;;;;;;;13.70;8.07;;;23.00;89.80;;;24.76;nan;100711.91;5006784;28;21302;-65
2022/10/20 09:32:34;;;;;;;9.73;7.37;;;22.80;90.70;;;26.69;nan;100731.03;5009149;28;20633;-64
2022/10/20 09:35:22;;;;;;;8.17;6.27;;;23.30;90.90;;;29.23;nan;100721.72;4991668;28;20638;-65
2022/10/20 09:38:31;;;;;;;8.27;5.87;;;24.60;89.40;;;29.42;nan;100706.31;4997988;28;21078;-64
2022/10/20 09:41:19;;;;;;;12.00;5.70;;;25.50;84.80;;;26.40;nan;100699.44;4980965;28;20639;-66
2022/10/20 09:44:00;;;;;;;9.90;6.37;;;24.90;84.80;;;24.82;nan;100700.44;4998109;28;20679;-64
2022/10/20 09:46:37;;;;;;;9.50;7.07;;;23.60;88.20;;;24.03;nan;100700.00;4957608;28;20635;-64
2022/10/20 09:49:06;;;;;;;10.00;6.47;;;22.90;90.30;;;23.36;nan;100706.88;5007924;28;20724;-66
2022/10/20 09:51:33;;;;;;;11.17;6.63;;;22.20;91.70;;;22.71;nan;100701.63;5009644;28;21172;-65
2022/10/20 09:54:16;;;;;;;14.83;7.00;;;21.60;93.30;;;21.88;nan;100693.94;5011249;28;20626;-65
2022/10/20 09:56:48;;;;;;;12.27;7.00;;;20.90;95.00;;;21.32;nan;100684.63;5008452;28;20973;-65
2022/10/20 09:59:39;;;;;;;10.20;7.10;;;20.40;96.80;;;20.81;nan;100701.19;5002065;28;20666;-65
2022/10/20 10:02:32;;;;;;;12.33;6.90;;;19.90;99.30;;;20.34;nan;100695.94;4990025;28;20630;-67
2022/10/20 10:05:19;;;;;;;13.90;7.40;;;19.50;99.90;;;19.75;nan;100684.00;4991118;28;20641;-64
2022/10/20 10:07:58;;;;;;;8.63;5.77;;;19.00;99.90;;;19.17;nan;100678.88;5000826;28;20700;-67
2022/10/20 10:10:28;;;;;;;9.97;6.37;;;18.60;99.90;;;18.92;nan;100679.00;5010846;28;20672;-64
2022/10/20 10:12:59;;;;;;;9.93;6.07;;;18.30;99.90;;;18.65;nan;100674.81;4996340;28;20634;-64
2022/10/20 10:15:36;;;;;;;8.20;5.77;;;18.00;99.90;;;18.74;nan;100679.09;5001325;28;20630;-67
2022/10/20 10:18:20;;;;;;;12.50;6.17;;;17.90;99.90;;;18.82;nan;100683.59;5001448;28;20727;-64
2022/10/20 10:20:59;;;;;;;9.03;5.40;;;17.90;99.90;;;19.02;nan;100669.91;4993952;28;21227;-64
2022/10/20 10:23:29;;;;;;;8.80;5.90;;;18.00;99.90;;;19.57;nan;100656.88;5010065;28;20636;-65
2022/10/20 10:25:58;;;;;;;8.73;6.03;;;18.20;99.90;;;20.30;nan;100654.06;4993733;28;20621;-64
2022/10/20 10:28:37;;;;;;;10.77;5.77;;;18.50;99.90;;;21.29;nan;100655.81;4993421;28;20661;-64
2022/10/20 10:31:21;;;;;;;12.03;5.60;;;19.10;99.90;;;21.52;nan;100661.09;4980163;28;20629;-65
2022/10/20 10:34:12;;;;;;;11.70;6.70;;;19.50;99.90;;;21.70;nan;100658.09;5002359;28;21278;-66
2022/10/20 10:36:39;;;;;;;7.93;5.77;;;19.70;99.90;;;21.24;nan;100652.03;5000757;28;20626;-69
2022/10/20 10:39:12;;;;;;;14.30;6.60;;;19.70;99.90;;;20.98;nan;100646.22;5008737;28;21331;-66
2022/10/20 10:41:48;;;;;;;23.93;8.60;;;19.50;99.90;;;21.23;nan;100629.16;5010274;28;20637;-65